sensor_id;sensor_type;location;lat;lon;timestamp;P1;durP1;ratioP1;P2;durP2;ratioP2
64018;SDS011;66942;52.138;5.216;2023-02-28T00:01:10;13.9;;;11.4;;
64018;SDS011;66942;52.138;5.216;2023-02-28T00:04:24;12.1;;;10.3;;
64018;SDS011;66942;52.138;5.216;2023-02-28T00:06:00;24.8;;;18.2;;
64018;SDS011;66942;52.138;5.216;2023-02-28T00:07:37;44.5;;;29.4;;
64018;SDS011;66942;52.138;5.216;2023-02-28T00:09:14;55.6;;;35.31;;
64018;SDS011;66942;52.138;5.216;2023-02-28T00:12:27;57.6;;;37.0;;
64018;SDS011;66942;52.138;5.216;2023-02-28T00:14:02;49.1;;;32.3;;
64018;SDS011;66942;52.138;5.216;2023-02-28T00:15:39;41.8;;;28.4;;
64018;SDS011;66942;52.138;5.216;2023-02-28T00:18:51;40.81;;;27.9;;
64018;SDS011;66942;52.138;5.216;2023-02-28T00:20:27;27.6;;;21.3;;
64018;SDS011;66942;52.138;5.216;2023-02-28T00:22:03;9.9;;;8.9;;
64018;SDS011;66942;52.138;5.216;2023-02-28T00:25:17;7.9;;;7.2;;
64018;SDS011;66942;52.138;5.216;2023-02-28T00:26:55;5.3;;;4.8;;
64018;SDS011;66942;52.138;5.216;2023-02-28T00:28:32;5.9;;;5.2;;
64018;SDS011;66942;52.138;5.216;2023-02-28T00:30:09;4.2;;;3.8;;
64018;SDS011;66942;52.138;5.216;2023-02-28T00:33:27;5.0;;;4.5;;
64018;SDS011;66942;52.138;5.216;2023-02-28T00:35:05;5.5;;;3.6;;
64018;SDS011;66942;52.138;5.216;2023-02-28T00:36:42;4.7;;;4.0;;
64018;SDS011;66942;52.138;5.216;2023-02-28T00:39:56;4.5;;;4.1;;
64018;SDS011;66942;52.138;5.216;2023-02-28T00:41:32;4.2;;;3.7;;
64018;SDS011;66942;52.138;5.216;2023-02-28T00:43:08;5.3;;;4.7;;
64018;SDS011;66942;52.138;5.216;2023-02-28T00:44:44;5.11;;;4.7;;
64018;SDS011;66942;52.138;5.216;2023-02-28T00:47:56;4.61;;;4.2;;
64018;SDS011;66942;52.138;5.216;2023-02-28T00:49:33;5.5;;;4.3;;
64018;SDS011;66942;52.138;5.216;2023-02-28T00:51:09;4.3;;;4.0;;
64018;SDS011;66942;52.138;5.216;2023-02-28T00:54:22;3.7;;;3.4;;
64018;SDS011;66942;52.138;5.216;2023-02-28T00:55:59;4.2;;;3.9;;
64018;SDS011;66942;52.138;5.216;2023-02-28T00:57:35;4.3;;;3.9;;
64018;SDS011;66942;52.138;5.216;2023-02-28T01:00:49;4.5;;;4.1;;
64018;SDS011;66942;52.138;5.216;2023-02-28T01:02:26;3.8;;;3.5;;
64018;SDS011;66942;52.138;5.216;2023-02-28T01:04:02;4.41;;;3.5;;
64018;SDS011;66942;52.138;5.216;2023-02-28T01:05:38;3.7;;;3.4;;
64018;SDS011;66942;52.138;5.216;2023-02-28T01:08:50;5.0;;;3.7;;
64018;SDS011;66942;52.138;5.216;2023-02-28T01:10:27;3.8;;;3.4;;
64018;SDS011;66942;52.138;5.216;2023-02-28T01:12:04;4.5;;;3.9;;
64018;SDS011;66942;52.138;5.216;2023-02-28T01:15:17;4.0;;;3.6;;
64018;SDS011;66942;52.138;5.216;2023-02-28T01:16:53;5.0;;;3.6;;
64018;SDS011;66942;52.138;5.216;2023-02-28T01:18:29;3.5;;;3.2;;
64018;SDS011;66942;52.138;5.216;2023-02-28T01:21:42;3.7;;;3.4;;
64018;SDS011;66942;52.138;5.216;2023-02-28T01:23:19;4.0;;;3.2;;
64018;SDS011;66942;52.138;5.216;2023-02-28T01:24:55;3.7;;;2.8;;
64018;SDS011;66942;52.138;5.216;2023-02-28T01:26:32;3.7;;;3.3;;
64018;SDS011;66942;52.138;5.216;2023-02-28T01:29:44;3.9;;;3.3;;
64018;SDS011;66942;52.138;5.216;2023-02-28T01:31:20;4.5;;;3.8;;
64018;SDS011;66942;52.138;5.216;2023-02-28T01:32:58;3.9;;;3.6;;
64018;SDS011;66942;52.138;5.216;2023-02-28T01:36:12;3.8;;;3.5;;
64018;SDS011;66942;52.138;5.216;2023-02-28T01:37:51;3.7;;;3.4;;
64018;SDS011;66942;52.138;5.216;2023-02-28T01:39:27;3.6;;;3.3;;
64018;SDS011;66942;52.138;5.216;2023-02-28T01:42:40;3.7;;;3.3;;
64018;SDS011;66942;52.138;5.216;2023-02-28T01:45:22;3.6;;;3.3;;
64018;SDS011;66942;52.138;5.216;2023-02-28T01:47:01;3.4;;;3.1;;
64018;SDS011;66942;52.138;5.216;2023-02-28T01:48:38;4.5;;;3.7;;
64018;SDS011;66942;52.138;5.216;2023-02-28T01:50:19;3.1;;;2.9;;
64018;SDS011;66942;52.138;5.216;2023-02-28T01:51:58;3.8;;;3.5;;
64018;SDS011;66942;52.138;5.216;2023-02-28T01:55:18;4.0;;;3.6;;
64018;SDS011;66942;52.138;5.216;2023-02-28T01:56:58;4.61;;;3.4;;
64018;SDS011;66942;52.138;5.216;2023-02-28T01:58:40;2.9;;;2.6;;
64018;SDS011;66942;52.138;5.216;2023-02-28T02:00:18;3.3;;;3.0;;
64018;SDS011;66942;52.138;5.216;2023-02-28T02:03:36;3.7;;;3.3;;
64018;SDS011;66942;52.138;5.216;2023-02-28T02:05:14;3.8;;;3.4;;
64018;SDS011;66942;52.138;5.216;2023-02-28T02:06:53;3.4;;;3.1;;
64018;SDS011;66942;52.138;5.216;2023-02-28T02:08:30;3.1;;;2.8;;
64018;SDS011;66942;52.138;5.216;2023-02-28T02:11:51;2.9;;;2.7;;
64018;SDS011;66942;52.138;5.216;2023-02-28T02:13:34;2.8;;;2.6;;
64018;SDS011;66942;52.138;5.216;2023-02-28T02:15:29;4.41;;;3.1;;
64018;SDS011;66942;52.138;5.216;2023-02-28T02:17:14;3.9;;;3.2;;
64018;SDS011;66942;52.138;5.216;2023-02-28T02:19:04;3.1;;;2.8;;
64018;SDS011;66942;52.138;5.216;2023-02-28T02:21:08;3.0;;;2.8;;
64018;SDS011;66942;52.138;5.216;2023-02-28T02:24:47;3.0;;;2.7;;
64018;SDS011;66942;52.138;5.216;2023-02-28T02:26:58;3.5;;;3.0;;
64018;SDS011;66942;52.138;5.216;2023-02-28T02:29:50;3.8;;;3.5;;
64018;SDS011;66942;52.138;5.216;2023-02-28T02:32:10;3.4;;;3.1;;
64018;SDS011;66942;52.138;5.216;2023-02-28T02:35:27;3.4;;;3.1;;
64018;SDS011;66942;52.138;5.216;2023-02-28T02:37:12;3.3;;;3.1;;
64018;SDS011;66942;52.138;5.216;2023-02-28T02:38:56;3.6;;;3.3;;
64018;SDS011;66942;52.138;5.216;2023-02-28T02:40:43;4.3;;;3.3;;
64018;SDS011;66942;52.138;5.216;2023-02-28T02:42:31;3.7;;;3.3;;
64018;SDS011;66942;52.138;5.216;2023-02-28T02:44:17;4.1;;;3.2;;
64018;SDS011;66942;52.138;5.216;2023-02-28T02:47:40;4.3;;;3.0;;
64018;SDS011;66942;52.138;5.216;2023-02-28T02:49:20;3.8;;;3.5;;
64018;SDS011;66942;52.138;5.216;2023-02-28T02:51:00;4.0;;;3.6;;
64018;SDS011;66942;52.138;5.216;2023-02-28T02:52:42;3.8;;;3.2;;
64018;SDS011;66942;52.138;5.216;2023-02-28T02:54:32;3.5;;;3.2;;
64018;SDS011;66942;52.138;5.216;2023-02-28T02:57:52;3.3;;;3.0;;
64018;SDS011;66942;52.138;5.216;2023-02-28T02:59:33;4.0;;;3.6;;
64018;SDS011;66942;52.138;5.216;2023-02-28T03:01:14;3.9;;;3.6;;
64018;SDS011;66942;52.138;5.216;2023-02-28T03:02:54;4.1;;;3.4;;
64018;SDS011;66942;52.138;5.216;2023-02-28T03:06:17;4.7;;;3.4;;
64018;SDS011;66942;52.138;5.216;2023-02-28T03:07:54;3.0;;;2.8;;
64018;SDS011;66942;52.138;5.216;2023-02-28T03:09:32;3.4;;;3.1;;
64018;SDS011;66942;52.138;5.216;2023-02-28T03:11:11;3.5;;;3.2;;
64018;SDS011;66942;52.138;5.216;2023-02-28T03:14:43;3.2;;;2.9;;
64018;SDS011;66942;52.138;5.216;2023-02-28T03:16:34;3.5;;;3.2;;
64018;SDS011;66942;52.138;5.216;2023-02-28T03:18:18;3.6;;;3.3;;
64018;SDS011;66942;52.138;5.216;2023-02-28T03:20:04;3.5;;;3.2;;
64018;SDS011;66942;52.138;5.216;2023-02-28T03:21:53;4.1;;;3.7;;
64018;SDS011;66942;52.138;5.216;2023-02-28T03:23:42;4.2;;;3.4;;
64018;SDS011;66942;52.138;5.216;2023-02-28T03:27:13;3.2;;;3.0;;
64018;SDS011;66942;52.138;5.216;2023-02-28T03:28:59;3.9;;;3.5;;
64018;SDS011;66942;52.138;5.216;2023-02-28T03:30:42;4.5;;;4.1;;
64018;SDS011;66942;52.138;5.216;2023-02-28T03:32:26;3.9;;;3.6;;
64018;SDS011;66942;52.138;5.216;2023-02-28T03:34:10;3.4;;;3.1;;
64018;SDS011;66942;52.138;5.216;2023-02-28T03:37:36;3.7;;;3.2;;
64018;SDS011;66942;52.138;5.216;2023-02-28T03:39:17;3.5;;;3.2;;
64018;SDS011;66942;52.138;5.216;2023-02-28T03:40:59;3.7;;;3.3;;
64018;SDS011;66942;52.138;5.216;2023-02-28T03:42:41;3.9;;;3.6;;
64018;SDS011;66942;52.138;5.216;2023-02-28T03:46:06;3.3;;;3.0;;
64018;SDS011;66942;52.138;5.216;2023-02-28T03:47:47;3.2;;;2.9;;
64018;SDS011;66942;52.138;5.216;2023-02-28T03:49:30;3.6;;;3.3;;
64018;SDS011;66942;52.138;5.216;2023-02-28T03:51:11;3.5;;;3.2;;
64018;SDS011;66942;52.138;5.216;2023-02-28T03:54:38;3.4;;;3.1;;
64018;SDS011;66942;52.138;5.216;2023-02-28T03:56:22;3.8;;;3.5;;
64018;SDS011;66942;52.138;5.216;2023-02-28T03:58:05;3.7;;;2.9;;
64018;SDS011;66942;52.138;5.216;2023-02-28T03:59:52;4.0;;;3.6;;
64018;SDS011;66942;52.138;5.216;2023-02-28T04:01:35;3.2;;;3.0;;
64018;SDS011;66942;52.138;5.216;2023-02-28T04:04:52;4.5;;;3.9;;
64018;SDS011;66942;52.138;5.216;2023-02-28T04:06:30;3.6;;;3.3;;
64018;SDS011;66942;52.138;5.216;2023-02-28T04:08:08;3.4;;;3.1;;
64018;SDS011;66942;52.138;5.216;2023-02-28T04:09:44;4.5;;;3.9;;
64018;SDS011;66942;52.138;5.216;2023-02-28T04:13:02;3.2;;;2.9;;
64018;SDS011;66942;52.138;5.216;2023-02-28T04:14:38;3.4;;;3.1;;
64018;SDS011;66942;52.138;5.216;2023-02-28T04:16:14;5.0;;;3.7;;
64018;SDS011;66942;52.138;5.216;2023-02-28T04:19:28;4.3;;;3.9;;
64018;SDS011;66942;52.138;5.216;2023-02-28T04:21:04;3.4;;;3.1;;
64018;SDS011;66942;52.138;5.216;2023-02-28T04:22:41;5.0;;;3.9;;
64018;SDS011;66942;52.138;5.216;2023-02-28T04:25:56;4.41;;;4.0;;
64018;SDS011;66942;52.138;5.216;2023-02-28T04:27:32;5.11;;;4.0;;
64018;SDS011;66942;52.138;5.216;2023-02-28T04:29:10;4.41;;;4.0;;
64018;SDS011;66942;52.138;5.216;2023-02-28T04:30:53;6.2;;;5.2;;
64018;SDS011;66942;52.138;5.216;2023-02-28T04:34:07;5.11;;;4.61;;
64018;SDS011;66942;52.138;5.216;2023-02-28T04:35:43;5.0;;;4.61;;
64018;SDS011;66942;52.138;5.216;2023-02-28T04:37:19;4.5;;;4.1;;
64018;SDS011;66942;52.138;5.216;2023-02-28T04:40:32;4.0;;;3.6;;
64018;SDS011;66942;52.138;5.216;2023-02-28T04:42:09;6.1;;;4.7;;
64018;SDS011;66942;52.138;5.216;2023-02-28T04:43:46;4.3;;;4.0;;
64018;SDS011;66942;52.138;5.216;2023-02-28T04:45:22;5.5;;;4.8;;
64018;SDS011;66942;52.138;5.216;2023-02-28T04:48:35;5.3;;;4.91;;
64018;SDS011;66942;52.138;5.216;2023-02-28T04:50:14;5.3;;;4.8;;
64018;SDS011;66942;52.138;5.216;2023-02-28T04:51:50;5.6;;;5.11;;
64018;SDS011;66942;52.138;5.216;2023-02-28T04:55:04;4.7;;;4.41;;
64018;SDS011;66942;52.138;5.216;2023-02-28T04:56:41;5.3;;;4.91;;
64018;SDS011;66942;52.138;5.216;2023-02-28T04:58:18;4.8;;;4.41;;
64018;SDS011;66942;52.138;5.216;2023-02-28T04:59:54;5.2;;;4.7;;
64018;SDS011;66942;52.138;5.216;2023-02-28T05:03:08;5.6;;;5.11;;
64018;SDS011;66942;52.138;5.216;2023-02-28T05:04:45;5.9;;;5.4;;
64018;SDS011;66942;52.138;5.216;2023-02-28T05:06:21;4.91;;;4.5;;
64018;SDS011;66942;52.138;5.216;2023-02-28T05:09:35;5.11;;;4.61;;
64018;SDS011;66942;52.138;5.216;2023-02-28T05:11:14;5.2;;;4.8;;
64018;SDS011;66942;52.138;5.216;2023-02-28T05:12:52;4.7;;;4.3;;
64018;SDS011;66942;52.138;5.216;2023-02-28T05:16:05;4.91;;;4.41;;
64018;SDS011;66942;52.138;5.216;2023-02-28T05:17:42;4.5;;;4.2;;
64018;SDS011;66942;52.138;5.216;2023-02-28T05:19:19;5.2;;;4.7;;
64018;SDS011;66942;52.138;5.216;2023-02-28T05:20:55;4.2;;;3.9;;
64018;SDS011;66942;52.138;5.216;2023-02-28T05:24:08;4.2;;;3.9;;
64018;SDS011;66942;52.138;5.216;2023-02-28T05:25:47;3.9;;;3.6;;
64018;SDS011;66942;52.138;5.216;2023-02-28T05:27:23;4.7;;;4.3;;
64018;SDS011;66942;52.138;5.216;2023-02-28T05:30:36;4.8;;;3.9;;
64018;SDS011;66942;52.138;5.216;2023-02-28T05:32:12;4.1;;;3.8;;
64018;SDS011;66942;52.138;5.216;2023-02-28T05:33:49;5.0;;;4.2;;
64018;SDS011;66942;52.138;5.216;2023-02-28T05:35:26;3.8;;;3.5;;
64018;SDS011;66942;52.138;5.216;2023-02-28T05:38:38;3.5;;;3.3;;
64018;SDS011;66942;52.138;5.216;2023-02-28T05:40:15;4.1;;;3.8;;
64018;SDS011;66942;52.138;5.216;2023-02-28T05:41:52;3.9;;;3.6;;
64018;SDS011;66942;52.138;5.216;2023-02-28T05:45:04;4.0;;;3.7;;
64018;SDS011;66942;52.138;5.216;2023-02-28T05:46:41;4.0;;;3.5;;
64018;SDS011;66942;52.138;5.216;2023-02-28T05:48:17;4.8;;;4.3;;
64018;SDS011;66942;52.138;5.216;2023-02-28T05:51:29;5.0;;;4.61;;
64018;SDS011;66942;52.138;5.216;2023-02-28T05:53:06;5.5;;;4.3;;
64018;SDS011;66942;52.138;5.216;2023-02-28T05:54:42;4.8;;;4.41;;
64018;SDS011;66942;52.138;5.216;2023-02-28T05:57:54;4.41;;;4.1;;
64018;SDS011;66942;52.138;5.216;2023-02-28T05:59:30;4.7;;;4.3;;
64018;SDS011;66942;52.138;5.216;2023-02-28T06:01:30;4.7;;;4.3;;
64018;SDS011;66942;52.138;5.216;2023-02-28T06:03:08;5.5;;;5.11;;
64018;SDS011;66942;52.138;5.216;2023-02-28T06:04:45;5.5;;;5.0;;
64018;SDS011;66942;52.138;5.216;2023-02-28T06:07:58;4.7;;;4.3;;
64018;SDS011;66942;52.138;5.216;2023-02-28T06:09:34;4.8;;;4.5;;
64018;SDS011;66942;52.138;5.216;2023-02-28T06:11:11;5.4;;;5.0;;
64018;SDS011;66942;52.138;5.216;2023-02-28T06:14:24;6.2;;;5.7;;
64018;SDS011;66942;52.138;5.216;2023-02-28T06:16:01;6.0;;;5.5;;
64018;SDS011;66942;52.138;5.216;2023-02-28T06:17:37;5.8;;;5.3;;
64018;SDS011;66942;52.138;5.216;2023-02-28T06:20:52;7.4;;;6.7;;
64018;SDS011;66942;52.138;5.216;2023-02-28T06:22:28;6.2;;;5.7;;
64018;SDS011;66942;52.138;5.216;2023-02-28T06:24:04;6.3;;;5.7;;
64018;SDS011;66942;52.138;5.216;2023-02-28T06:25:44;5.6;;;4.91;;
64018;SDS011;66942;52.138;5.216;2023-02-28T06:28:57;6.2;;;5.8;;
64018;SDS011;66942;52.138;5.216;2023-02-28T06:30:33;6.3;;;5.8;;
64018;SDS011;66942;52.138;5.216;2023-02-28T06:32:09;6.2;;;5.8;;
64018;SDS011;66942;52.138;5.216;2023-02-28T06:35:22;6.8;;;6.3;;
64018;SDS011;66942;52.138;5.216;2023-02-28T06:36:58;7.5;;;6.8;;
64018;SDS011;66942;52.138;5.216;2023-02-28T06:38:36;6.1;;;5.6;;
64018;SDS011;66942;52.138;5.216;2023-02-28T06:41:51;6.0;;;5.6;;
64018;SDS011;66942;52.138;5.216;2023-02-28T06:43:27;5.8;;;5.4;;
64018;SDS011;66942;52.138;5.216;2023-02-28T06:45:05;6.1;;;5.6;;
64018;SDS011;66942;52.138;5.216;2023-02-28T06:46:42;6.6;;;6.1;;
64018;SDS011;66942;52.138;5.216;2023-02-28T06:49:56;7.8;;;7.2;;
64018;SDS011;66942;52.138;5.216;2023-02-28T06:51:33;6.4;;;5.9;;
64018;SDS011;66942;52.138;5.216;2023-02-28T06:53:09;7.7;;;7.2;;
64018;SDS011;66942;52.138;5.216;2023-02-28T06:56:21;6.5;;;6.0;;
64018;SDS011;66942;52.138;5.216;2023-02-28T06:57:57;7.8;;;7.4;;
64018;SDS011;66942;52.138;5.216;2023-02-28T06:59:34;9.0;;;8.4;;
64018;SDS011;66942;52.138;5.216;2023-02-28T07:02:49;10.9;;;10.21;;
64018;SDS011;66942;52.138;5.216;2023-02-28T07:04:25;9.21;;;8.31;;
64018;SDS011;66942;52.138;5.216;2023-02-28T07:06:01;7.8;;;7.3;;
64018;SDS011;66942;52.138;5.216;2023-02-28T07:07:38;6.8;;;6.4;;
64018;SDS011;66942;52.138;5.216;2023-02-28T07:10:52;6.1;;;5.7;;
64018;SDS011;66942;52.138;5.216;2023-02-28T07:12:28;5.9;;;5.5;;
64018;SDS011;66942;52.138;5.216;2023-02-28T07:14:05;6.4;;;6.0;;
64018;SDS011;66942;52.138;5.216;2023-02-28T07:17:17;6.1;;;5.7;;
64018;SDS011;66942;52.138;5.216;2023-02-28T07:18:53;5.6;;;5.2;;
64018;SDS011;66942;52.138;5.216;2023-02-28T07:20:29;6.1;;;5.7;;
64018;SDS011;66942;52.138;5.216;2023-02-28T07:23:43;7.3;;;6.7;;
64018;SDS011;66942;52.138;5.216;2023-02-28T07:25:20;6.4;;;6.0;;
64018;SDS011;66942;52.138;5.216;2023-02-28T07:26:56;8.71;;;8.1;;
64018;SDS011;66942;52.138;5.216;2023-02-28T07:28:33;8.2;;;7.7;;
64018;SDS011;66942;52.138;5.216;2023-02-28T07:31:46;7.8;;;7.3;;
64018;SDS011;66942;52.138;5.216;2023-02-28T07:33:22;6.1;;;5.7;;
64018;SDS011;66942;52.138;5.216;2023-02-28T07:34:58;6.0;;;5.6;;
64018;SDS011;66942;52.138;5.216;2023-02-28T07:38:11;7.2;;;6.5;;
64018;SDS011;66942;52.138;5.216;2023-02-28T07:39:47;5.9;;;5.5;;
64018;SDS011;66942;52.138;5.216;2023-02-28T07:41:23;6.2;;;5.8;;
64018;SDS011;66942;52.138;5.216;2023-02-28T07:44:36;6.4;;;5.8;;
64018;SDS011;66942;52.138;5.216;2023-02-28T07:46:14;6.9;;;6.2;;
64018;SDS011;66942;52.138;5.216;2023-02-28T07:47:51;7.0;;;6.5;;
64018;SDS011;66942;52.138;5.216;2023-02-28T07:49:29;6.9;;;6.4;;
64018;SDS011;66942;52.138;5.216;2023-02-28T07:52:41;8.1;;;7.5;;
64018;SDS011;66942;52.138;5.216;2023-02-28T07:54:18;6.0;;;5.6;;
64018;SDS011;66942;52.138;5.216;2023-02-28T07:55:55;6.4;;;5.9;;
64018;SDS011;66942;52.138;5.216;2023-02-28T07:59:07;7.7;;;7.2;;
64018;SDS011;66942;52.138;5.216;2023-02-28T08:00:43;8.5;;;7.9;;
64018;SDS011;66942;52.138;5.216;2023-02-28T08:02:20;9.0;;;8.4;;
64018;SDS011;66942;52.138;5.216;2023-02-28T08:05:32;6.9;;;6.5;;
64018;SDS011;66942;52.138;5.216;2023-02-28T08:07:08;7.4;;;7.0;;
64018;SDS011;66942;52.138;5.216;2023-02-28T08:08:44;9.1;;;8.5;;
64018;SDS011;66942;52.138;5.216;2023-02-28T08:10:20;8.6;;;8.0;;
64018;SDS011;66942;52.138;5.216;2023-02-28T08:13:33;8.6;;;8.0;;
64018;SDS011;66942;52.138;5.216;2023-02-28T08:15:09;8.1;;;7.4;;
64018;SDS011;66942;52.138;5.216;2023-02-28T08:16:46;7.5;;;7.0;;
64018;SDS011;66942;52.138;5.216;2023-02-28T08:19:59;7.2;;;6.7;;
64018;SDS011;66942;52.138;5.216;2023-02-28T08:21:36;7.8;;;7.2;;
64018;SDS011;66942;52.138;5.216;2023-02-28T08:23:12;8.0;;;7.4;;
64018;SDS011;66942;52.138;5.216;2023-02-28T08:26:25;9.6;;;8.9;;
64018;SDS011;66942;52.138;5.216;2023-02-28T08:28:01;7.6;;;7.1;;
64018;SDS011;66942;52.138;5.216;2023-02-28T08:29:38;6.0;;;5.6;;
64018;SDS011;66942;52.138;5.216;2023-02-28T08:31:15;11.1;;;10.1;;
64018;SDS011;66942;52.138;5.216;2023-02-28T08:34:29;7.5;;;6.2;;
64018;SDS011;66942;52.138;5.216;2023-02-28T08:36:05;7.4;;;6.9;;
64018;SDS011;66942;52.138;5.216;2023-02-28T08:37:43;8.4;;;7.7;;
64018;SDS011;66942;52.138;5.216;2023-02-28T08:40:57;7.6;;;7.1;;
64018;SDS011;66942;52.138;5.216;2023-02-28T08:42:35;8.31;;;7.7;;
64018;SDS011;66942;52.138;5.216;2023-02-28T08:44:11;8.5;;;7.9;;
64018;SDS011;66942;52.138;5.216;2023-02-28T08:45:50;8.9;;;8.31;;
64018;SDS011;66942;52.138;5.216;2023-02-28T08:49:03;8.0;;;7.5;;
64018;SDS011;66942;52.138;5.216;2023-02-28T08:50:39;7.7;;;7.2;;
64018;SDS011;66942;52.138;5.216;2023-02-28T08:52:15;8.1;;;7.5;;
64018;SDS011;66942;52.138;5.216;2023-02-28T08:55:30;7.1;;;6.6;;
64018;SDS011;66942;52.138;5.216;2023-02-28T08:57:06;7.0;;;6.6;;
64018;SDS011;66942;52.138;5.216;2023-02-28T08:58:42;7.4;;;6.8;;
64018;SDS011;66942;52.138;5.216;2023-02-28T09:01:57;6.6;;;6.1;;
64018;SDS011;66942;52.138;5.216;2023-02-28T09:03:33;6.3;;;5.8;;
64018;SDS011;66942;52.138;5.216;2023-02-28T09:05:10;6.2;;;5.8;;
64018;SDS011;66942;52.138;5.216;2023-02-28T09:06:46;6.4;;;5.8;;
64018;SDS011;66942;52.138;5.216;2023-02-28T09:09:59;5.7;;;5.3;;
64018;SDS011;66942;52.138;5.216;2023-02-28T09:11:35;6.2;;;5.8;;
64018;SDS011;66942;52.138;5.216;2023-02-28T09:13:12;6.1;;;5.3;;
64018;SDS011;66942;52.138;5.216;2023-02-28T09:16:24;5.3;;;4.91;;
64018;SDS011;66942;52.138;5.216;2023-02-28T09:18:01;5.11;;;4.8;;
64018;SDS011;66942;52.138;5.216;2023-02-28T09:19:37;4.91;;;4.41;;
64018;SDS011;66942;52.138;5.216;2023-02-28T09:22:52;4.91;;;4.41;;
64018;SDS011;66942;52.138;5.216;2023-02-28T09:24:28;5.11;;;4.7;;
64018;SDS011;66942;52.138;5.216;2023-02-28T09:26:04;4.7;;;4.2;;
64018;SDS011;66942;52.138;5.216;2023-02-28T09:27:41;4.8;;;4.41;;
64018;SDS011;66942;52.138;5.216;2023-02-28T09:30:54;4.5;;;4.2;;
64018;SDS011;66942;52.138;5.216;2023-02-28T09:32:31;4.41;;;4.1;;
64018;SDS011;66942;52.138;5.216;2023-02-28T09:34:07;4.0;;;3.7;;
64018;SDS011;66942;52.138;5.216;2023-02-28T09:37:19;4.0;;;3.7;;
64018;SDS011;66942;52.138;5.216;2023-02-28T09:38:55;4.3;;;4.0;;
64018;SDS011;66942;52.138;5.216;2023-02-28T09:40:32;4.41;;;4.0;;
64018;SDS011;66942;52.138;5.216;2023-02-28T09:44:05;4.2;;;3.8;;
64018;SDS011;66942;52.138;5.216;2023-02-28T09:45:50;4.3;;;3.9;;
64018;SDS011;66942;52.138;5.216;2023-02-28T09:47:31;3.7;;;3.4;;
64018;SDS011;66942;52.138;5.216;2023-02-28T09:49:12;3.6;;;3.3;;
64018;SDS011;66942;52.138;5.216;2023-02-28T09:50:52;3.3;;;3.0;;
64018;SDS011;66942;52.138;5.216;2023-02-28T09:54:14;3.8;;;3.4;;
64018;SDS011;66942;52.138;5.216;2023-02-28T09:55:53;4.0;;;3.1;;
64018;SDS011;66942;52.138;5.216;2023-02-28T09:57:35;4.61;;;3.3;;
64018;SDS011;66942;52.138;5.216;2023-02-28T09:59:18;2.9;;;2.7;;
64018;SDS011;66942;52.138;5.216;2023-02-28T10:01:18;3.3;;;3.1;;
64018;SDS011;66942;52.138;5.216;2023-02-28T10:05:02;3.1;;;2.8;;
64018;SDS011;66942;52.138;5.216;2023-02-28T10:06:44;3.3;;;3.0;;
64018;SDS011;66942;52.138;5.216;2023-02-28T10:08:25;3.6;;;2.8;;
64018;SDS011;66942;52.138;5.216;2023-02-28T10:10:07;3.5;;;3.2;;
64018;SDS011;66942;52.138;5.216;2023-02-28T10:11:57;5.2;;;4.8;;
64018;SDS011;66942;52.138;5.216;2023-02-28T10:13:42;3.4;;;3.2;;
64018;SDS011;66942;52.138;5.216;2023-02-28T10:17:08;3.0;;;2.7;;
64018;SDS011;66942;52.138;5.216;2023-02-28T10:18:51;2.0;;;1.9;;
64018;SDS011;66942;52.138;5.216;2023-02-28T10:20:35;2.31;;;2.1;;
64018;SDS011;66942;52.138;5.216;2023-02-28T10:22:14;2.31;;;2.21;;
64018;SDS011;66942;52.138;5.216;2023-02-28T10:25:54;2.21;;;1.9;;
64018;SDS011;66942;52.138;5.216;2023-02-28T10:27:34;2.5;;;2.31;;
64018;SDS011;66942;52.138;5.216;2023-02-28T10:29:10;2.31;;;2.21;;
64018;SDS011;66942;52.138;5.216;2023-02-28T10:30:48;2.21;;;2.0;;
64018;SDS011;66942;52.138;5.216;2023-02-28T10:34:07;1.8;;;1.7;;
64018;SDS011;66942;52.138;5.216;2023-02-28T10:35:47;1.8;;;1.7;;
64018;SDS011;66942;52.138;5.216;2023-02-28T10:37:24;2.21;;;1.5;;
64018;SDS011;66942;52.138;5.216;2023-02-28T10:39:02;1.7;;;1.6;;
64018;SDS011;66942;52.138;5.216;2023-02-28T10:41:11;2.1;;;1.9;;
64018;SDS011;66942;52.138;5.216;2023-02-28T10:44:34;2.1;;;1.8;;
64018;SDS011;66942;52.138;5.216;2023-02-28T10:46:11;2.1;;;1.8;;
64018;SDS011;66942;52.138;5.216;2023-02-28T10:47:52;1.9;;;1.8;;
64018;SDS011;66942;52.138;5.216;2023-02-28T10:49:30;2.1;;;1.8;;
64018;SDS011;66942;52.138;5.216;2023-02-28T10:52:45;2.1;;;1.9;;
64018;SDS011;66942;52.138;5.216;2023-02-28T10:54:22;1.6;;;1.5;;
64018;SDS011;66942;52.138;5.216;2023-02-28T10:56:04;2.31;;;2.1;;
64018;SDS011;66942;52.138;5.216;2023-02-28T10:57:49;2.1;;;2.0;;
64018;SDS011;66942;52.138;5.216;2023-02-28T11:01:10;2.21;;;2.0;;
64018;SDS011;66942;52.138;5.216;2023-02-28T11:02:49;1.9;;;1.8;;
64018;SDS011;66942;52.138;5.216;2023-02-28T11:04:34;2.0;;;1.8;;
64018;SDS011;66942;52.138;5.216;2023-02-28T11:06:14;2.0;;;1.9;;
64018;SDS011;66942;52.138;5.216;2023-02-28T11:09:35;1.5;;;1.4;;
64018;SDS011;66942;52.138;5.216;2023-02-28T11:11:14;3.1;;;1.8;;
64018;SDS011;66942;52.138;5.216;2023-02-28T11:12:53;1.7;;;1.6;;
64018;SDS011;66942;52.138;5.216;2023-02-28T11:14:31;1.9;;;1.8;;
64018;SDS011;66942;52.138;5.216;2023-02-28T11:18:18;1.8;;;1.6;;
64018;SDS011;66942;52.138;5.216;2023-02-28T11:19:59;2.1;;;1.6;;
64018;SDS011;66942;52.138;5.216;2023-02-28T11:21:39;1.5;;;1.4;;
64018;SDS011;66942;52.138;5.216;2023-02-28T11:23:24;3.9;;;3.6;;
64018;SDS011;66942;52.138;5.216;2023-02-28T11:25:06;2.21;;;2.0;;
64018;SDS011;66942;52.138;5.216;2023-02-28T11:28:26;2.1;;;2.0;;
64018;SDS011;66942;52.138;5.216;2023-02-28T11:30:11;2.8;;;2.21;;
64018;SDS011;66942;52.138;5.216;2023-02-28T11:32:01;1.5;;;1.4;;
64018;SDS011;66942;52.138;5.216;2023-02-28T11:33:49;1.4;;;1.3;;
64018;SDS011;66942;52.138;5.216;2023-02-28T11:35:28;1.6;;;1.5;;
64018;SDS011;66942;52.138;5.216;2023-02-28T11:38:50;2.5;;;2.31;;
64018;SDS011;66942;52.138;5.216;2023-02-28T11:40:31;1.7;;;1.6;;
64018;SDS011;66942;52.138;5.216;2023-02-28T11:42:25;2.7;;;1.6;;
64018;SDS011;66942;52.138;5.216;2023-02-28T11:45:17;2.1;;;1.9;;
64018;SDS011;66942;52.138;5.216;2023-02-28T11:47:15;1.7;;;1.6;;
64018;SDS011;66942;52.138;5.216;2023-02-28T11:49:02;1.8;;;1.7;;
64018;SDS011;66942;52.138;5.216;2023-02-28T11:50:55;3.1;;;2.0;;
64018;SDS011;66942;52.138;5.216;2023-02-28T11:52:43;2.0;;;1.9;;
64018;SDS011;66942;52.138;5.216;2023-02-28T11:54:27;1.8;;;1.6;;
64018;SDS011;66942;52.138;5.216;2023-02-28T11:56:29;1.7;;;1.6;;
64018;SDS011;66942;52.138;5.216;2023-02-28T12:00:32;2.31;;;2.0;;
64018;SDS011;66942;52.138;5.216;2023-02-28T12:04:04;1.8;;;1.6;;
64018;SDS011;66942;52.138;5.216;2023-02-28T12:05:58;5.11;;;3.3;;
64018;SDS011;66942;52.138;5.216;2023-02-28T12:07:56;3.4;;;2.5;;
64018;SDS011;66942;52.138;5.216;2023-02-28T12:09:46;2.5;;;1.7;;
64018;SDS011;66942;52.138;5.216;2023-02-28T12:11:39;2.7;;;1.6;;
64018;SDS011;66942;52.138;5.216;2023-02-28T12:13:27;2.4;;;1.6;;
64018;SDS011;66942;52.138;5.216;2023-02-28T12:15:22;1.8;;;1.7;;
64018;SDS011;66942;52.138;5.216;2023-02-28T12:18:25;2.21;;;2.0;;
64018;SDS011;66942;52.138;5.216;2023-02-28T12:20:29;1.6;;;1.5;;
64018;SDS011;66942;52.138;5.216;2023-02-28T12:22:15;1.8;;;1.7;;
64018;SDS011;66942;52.138;5.216;2023-02-28T12:24:08;1.6;;;1.5;;
64018;SDS011;66942;52.138;5.216;2023-02-28T12:26:28;1.8;;;1.7;;
64018;SDS011;66942;52.138;5.216;2023-02-28T12:28:13;1.6;;;1.5;;
64018;SDS011;66942;52.138;5.216;2023-02-28T12:29:54;2.1;;;1.7;;
64018;SDS011;66942;52.138;5.216;2023-02-28T12:33:15;1.6;;;1.5;;
64018;SDS011;66942;52.138;5.216;2023-02-28T12:34:58;1.7;;;1.6;;
64018;SDS011;66942;52.138;5.216;2023-02-28T12:36:40;2.31;;;1.8;;
64018;SDS011;66942;52.138;5.216;2023-02-28T12:38:19;1.8;;;1.7;;
64018;SDS011;66942;52.138;5.216;2023-02-28T12:41:41;2.0;;;1.6;;
64018;SDS011;66942;52.138;5.216;2023-02-28T12:43:22;1.7;;;1.6;;
64018;SDS011;66942;52.138;5.216;2023-02-28T12:45:08;2.0;;;1.8;;
64018;SDS011;66942;52.138;5.216;2023-02-28T12:46:51;1.8;;;1.7;;
64018;SDS011;66942;52.138;5.216;2023-02-28T12:48:36;1.7;;;1.6;;
64018;SDS011;66942;52.138;5.216;2023-02-28T12:51:56;1.9;;;1.8;;
64018;SDS011;66942;52.138;5.216;2023-02-28T12:53:36;1.9;;;1.8;;
64018;SDS011;66942;52.138;5.216;2023-02-28T12:55:27;1.7;;;1.6;;
64018;SDS011;66942;52.138;5.216;2023-02-28T12:57:15;1.7;;;1.6;;
64018;SDS011;66942;52.138;5.216;2023-02-28T12:59:01;2.1;;;1.4;;
64018;SDS011;66942;52.138;5.216;2023-02-28T13:03:41;2.0;;;1.8;;